sensor_id;sensor_type;location;lat;lon;timestamp;pressure;altitude;pressure_sealevel;temperature;humidity
72465;BME280;60471;52.150;4.508;2023-03-18T00:00:06;100501.19;;;12.25;73.11
72465;BME280;60471;52.150;4.508;2023-03-18T00:02:37;100495.84;;;11.97;74.09
72465;BME280;60471;52.150;4.508;2023-03-18T00:05:05;100503.66;;;11.84;74.70
72465;BME280;60471;52.150;4.508;2023-03-18T00:07:33;100499.13;;;11.70;75.24
72465;BME280;60471;52.150;4.508;2023-03-18T00:10:01;100500.47;;;11.77;75.16
72465;BME280;60471;52.150;4.508;2023-03-18T00:12:28;100504.91;;;11.77;74.97
72465;BME280;60471;52.150;4.508;2023-03-18T00:14:54;100507.22;;;11.83;74.66
72465;BME280;60471;52.150;4.508;2023-03-18T00:17:20;100502.28;;;11.77;74.93
72465;BME280;60471;52.150;4.508;2023-03-18T00:19:47;100506.72;;;11.76;74.81
72465;BME280;60471;52.150;4.508;2023-03-18T00:22:14;100512.72;;;11.64;75.20
72465;BME280;60471;52.150;4.508;2023-03-18T00:24:40;100514.66;;;11.60;75.29
72465;BME280;60471;52.150;4.508;2023-03-18T00:27:07;100513.47;;;11.50;75.65
72465;BME280;60471;52.150;4.508;2023-03-18T00:29:34;100514.00;;;11.57;75.60
72465;BME280;60471;52.150;4.508;2023-03-18T00:32:00;100508.66;;;11.43;76.02
72465;BME280;60471;52.150;4.508;2023-03-18T00:34:26;100510.59;;;11.39;76.20
72465;BME280;60471;52.150;4.508;2023-03-18T00:36:52;100508.22;;;11.35;76.58
72465;BME280;60471;52.150;4.508;2023-03-18T00:39:22;100511.72;;;11.35;76.29
72465;BME280;60471;52.150;4.508;2023-03-18T00:41:54;100517.00;;;11.19;76.76
72465;BME280;60471;52.150;4.508;2023-03-18T00:44:22;100510.63;;;11.08;77.66
72465;BME280;60471;52.150;4.508;2023-03-18T00:46:50;100516.84;;;11.22;77.37
72465;BME280;60471;52.150;4.508;2023-03-18T00:49:16;100512.06;;;11.29;77.11
72465;BME280;60471;52.150;4.508;2023-03-18T00:51:42;100513.94;;;11.27;77.12
72465;BME280;60471;52.150;4.508;2023-03-18T00:54:11;100510.34;;;11.28;77.00
72465;BME280;60471;52.150;4.508;2023-03-18T00:56:39;100509.91;;;11.36;76.63
72465;BME280;60471;52.150;4.508;2023-03-18T00:59:06;100506.78;;;11.29;76.85
72465;BME280;60471;52.150;4.508;2023-03-18T01:01:34;100513.59;;;11.33;76.83
72465;BME280;60471;52.150;4.508;2023-03-18T01:04:01;100508.38;;;11.16;77.82
72465;BME280;60471;52.150;4.508;2023-03-18T01:06:31;100509.25;;;11.16;77.92
72465;BME280;60471;52.150;4.508;2023-03-18T01:09:00;100508.41;;;11.31;77.43
72465;BME280;60471;52.150;4.508;2023-03-18T01:11:28;100514.13;;;11.40;77.14
72465;BME280;60471;52.150;4.508;2023-03-18T01:13:54;100510.44;;;11.26;77.64
72465;BME280;60471;52.150;4.508;2023-03-18T01:16:22;100504.91;;;11.31;77.34
72465;BME280;60471;52.150;4.508;2023-03-18T01:18:48;100506.19;;;11.24;77.48
72465;BME280;60471;52.150;4.508;2023-03-18T01:21:15;100508.25;;;11.19;77.87
72465;BME280;60471;52.150;4.508;2023-03-18T01:23:42;100502.50;;;11.26;77.76
72465;BME280;60471;52.150;4.508;2023-03-18T01:26:09;100505.06;;;11.28;77.62
72465;BME280;60471;52.150;4.508;2023-03-18T01:28:35;100505.06;;;11.28;77.75
72465;BME280;60471;52.150;4.508;2023-03-18T01:31:02;100512.50;;;11.21;77.73
72465;BME280;60471;52.150;4.508;2023-03-18T01:33:29;100500.47;;;11.31;77.44
72465;BME280;60471;52.150;4.508;2023-03-18T01:35:58;100509.66;;;11.24;77.66
72465;BME280;60471;52.150;4.508;2023-03-18T01:38:27;100502.03;;;11.20;78.28
72465;BME280;60471;52.150;4.508;2023-03-18T01:40:58;100503.81;;;11.19;78.20
72465;BME280;60471;52.150;4.508;2023-03-18T01:43:34;100509.25;;;11.16;78.28
72465;BME280;60471;52.150;4.508;2023-03-18T01:46:42;100512.59;;;11.20;78.14
72465;BME280;60471;52.150;4.508;2023-03-18T01:49:14;100516.84;;;11.22;78.39
72465;BME280;60471;52.150;4.508;2023-03-18T01:51:45;100519.66;;;11.19;78.24
72465;BME280;60471;52.150;4.508;2023-03-18T01:54:15;100521.44;;;11.35;77.98
72465;BME280;60471;52.150;4.508;2023-03-18T01:56:44;100518.28;;;11.44;77.33
72465;BME280;60471;52.150;4.508;2023-03-18T01:59:13;100521.50;;;11.17;78.06
72465;BME280;60471;52.150;4.508;2023-03-18T02:02:07;100521.00;;;11.26;77.57
72465;BME280;60471;52.150;4.508;2023-03-18T02:04:39;100517.59;;;11.40;77.14
72465;BME280;60471;52.150;4.508;2023-03-18T02:07:14;100521.50;;;11.49;76.92
72465;BME280;60471;52.150;4.508;2023-03-18T02:09:46;100522.00;;;11.55;76.83
72465;BME280;60471;52.150;4.508;2023-03-18T02:12:17;100511.00;;;11.63;76.48
72465;BME280;60471;52.150;4.508;2023-03-18T02:14:50;100514.34;;;11.51;76.55
72465;BME280;60471;52.150;4.508;2023-03-18T02:17:21;100517.25;;;11.46;76.96
72465;BME280;60471;52.150;4.508;2023-03-18T02:20:08;100513.75;;;11.46;76.59
72465;BME280;60471;52.150;4.508;2023-03-18T02:22:53;100512.38;;;11.54;76.80
72465;BME280;60471;52.150;4.508;2023-03-18T02:25:39;100517.25;;;11.46;76.66
72465;BME280;60471;52.150;4.508;2023-03-18T02:28:28;100518.44;;;11.25;78.04
72465;BME280;60471;52.150;4.508;2023-03-18T02:31:01;100522.63;;;11.29;77.83
72465;BME280;60471;52.150;4.508;2023-03-18T02:33:36;100523.72;;;11.25;78.06
72465;BME280;60471;52.150;4.508;2023-03-18T02:36:09;100512.97;;;11.28;77.71
72465;BME280;60471;52.150;4.508;2023-03-18T02:38:40;100497.00;;;11.31;77.83
72465;BME280;60471;52.150;4.508;2023-03-18T02:41:20;100511.97;;;11.46;77.13
72465;BME280;60471;52.150;4.508;2023-03-18T02:43:49;100508.78;;;11.55;76.59
72465;BME280;60471;52.150;4.508;2023-03-18T02:49:15;100516.22;;;11.49;76.26
72465;BME280;60471;52.150;4.508;2023-03-18T02:51:43;100522.34;;;11.49;76.88
72465;BME280;60471;52.150;4.508;2023-03-18T02:54:13;100528.56;;;11.48;76.70
72465;BME280;60471;52.150;4.508;2023-03-18T02:56:49;100528.94;;;11.42;76.75
72465;BME280;60471;52.150;4.508;2023-03-18T02:59:16;100529.50;;;11.47;76.42
72465;BME280;60471;52.150;4.508;2023-03-18T03:01:46;100532.53;;;11.41;76.44
72465;BME280;60471;52.150;4.508;2023-03-18T03:04:14;100537.97;;;11.54;76.34
72465;BME280;60471;52.150;4.508;2023-03-18T03:06:42;100537.09;;;11.38;77.04
72465;BME280;60471;52.150;4.508;2023-03-18T03:09:12;100535.72;;;11.46;76.65
72465;BME280;60471;52.150;4.508;2023-03-18T03:11:42;100538.91;;;11.53;76.92
72465;BME280;60471;52.150;4.508;2023-03-18T03:14:11;100542.16;;;11.42;76.70
72465;BME280;60471;52.150;4.508;2023-03-18T03:16:41;100534.59;;;11.66;76.32
72465;BME280;60471;52.150;4.508;2023-03-18T03:19:08;100539.22;;;11.63;76.00
72465;BME280;60471;52.150;4.508;2023-03-18T03:21:34;100537.91;;;11.70;75.62
72465;BME280;60471;52.150;4.508;2023-03-18T03:24:02;100531.13;;;11.66;75.98
72465;BME280;60471;52.150;4.508;2023-03-18T03:26:30;100536.59;;;11.63;75.65
72465;BME280;60471;52.150;4.508;2023-03-18T03:28:57;100536.84;;;11.58;76.31
72465;BME280;60471;52.150;4.508;2023-03-18T03:31:23;100538.28;;;11.64;75.99
72465;BME280;60471;52.150;4.508;2023-03-18T03:33:51;100541.78;;;11.64;76.04
72465;BME280;60471;52.150;4.508;2023-03-18T03:36:17;100544.66;;;11.75;75.79
72465;BME280;60471;52.150;4.508;2023-03-18T03:38:44;100546.81;;;11.53;76.61
72465;BME280;60471;52.150;4.508;2023-03-18T03:41:11;100548.16;;;11.28;77.35
72465;BME280;60471;52.150;4.508;2023-03-18T03:43:39;100548.94;;;11.46;77.15
72465;BME280;60471;52.150;4.508;2023-03-18T03:46:06;100547.31;;;11.59;76.66
72465;BME280;60471;52.150;4.508;2023-03-18T03:48:34;100545.03;;;11.53;77.29
72465;BME280;60471;52.150;4.508;2023-03-18T03:51:01;100554.47;;;11.57;77.49
72465;BME280;60471;52.150;4.508;2023-03-18T03:53:28;100562.56;;;11.39;78.22
72465;BME280;60471;52.150;4.508;2023-03-18T03:55:54;100566.25;;;11.36;78.72
72465;BME280;60471;52.150;4.508;2023-03-18T03:58:21;100575.72;;;11.40;78.92
72465;BME280;60471;52.150;4.508;2023-03-18T04:00:48;100566.06;;;11.39;79.14
72465;BME280;60471;52.150;4.508;2023-03-18T04:03:14;100573.16;;;11.39;79.36
72465;BME280;60471;52.150;4.508;2023-03-18T04:05:41;100565.22;;;11.39;79.80
72465;BME280;60471;52.150;4.508;2023-03-18T04:08:08;100574.59;;;11.28;80.51
72465;BME280;60471;52.150;4.508;2023-03-18T04:10:34;100576.81;;;11.36;80.68
72465;BME280;60471;52.150;4.508;2023-03-18T04:13:03;100580.91;;;11.42;80.66
72465;BME280;60471;52.150;4.508;2023-03-18T04:15:29;100564.78;;;11.46;81.17
72465;BME280;60471;52.150;4.508;2023-03-18T04:17:56;100578.53;;;11.53;81.28
72465;BME280;60471;52.150;4.508;2023-03-18T04:20:22;100568.53;;;11.58;81.42
72465;BME280;60471;52.150;4.508;2023-03-18T04:22:48;100566.06;;;11.39;81.74
72465;BME280;60471;52.150;4.508;2023-03-18T04:25:15;100577.06;;;11.47;82.14
72465;BME280;60471;52.150;4.508;2023-03-18T04:27:41;100581.75;;;11.26;82.53
72465;BME280;60471;52.150;4.508;2023-03-18T04:30:09;100583.63;;;11.24;83.12
72465;BME280;60471;52.150;4.508;2023-03-18T04:32:35;100587.88;;;11.27;83.52
72465;BME280;60471;52.150;4.508;2023-03-18T04:35:02;100588.41;;;11.33;83.17
72465;BME280;60471;52.150;4.508;2023-03-18T04:37:28;100589.25;;;11.34;83.05
72465;BME280;60471;52.150;4.508;2023-03-18T04:39:55;100590.03;;;11.36;83.30
72465;BME280;60471;52.150;4.508;2023-03-18T04:42:21;100588.00;;;11.41;83.13
72465;BME280;60471;52.150;4.508;2023-03-18T04:44:47;100589.25;;;11.50;82.44
72465;BME280;60471;52.150;4.508;2023-03-18T04:47:14;100595.66;;;11.46;82.60
72465;BME280;60471;52.150;4.508;2023-03-18T04:49:47;100608.31;;;11.08;83.58
72465;BME280;60471;52.150;4.508;2023-03-18T04:52:14;100604.97;;;11.04;84.25
72465;BME280;60471;52.150;4.508;2023-03-18T04:54:41;100602.88;;;11.11;83.95
72465;BME280;60471;52.150;4.508;2023-03-18T04:57:08;100607.31;;;11.10;84.16
72465;BME280;60471;52.150;4.508;2023-03-18T04:59:34;100616.66;;;11.00;84.50
72465;BME280;60471;52.150;4.508;2023-03-18T05:02:00;100616.00;;;10.95;84.99
72465;BME280;60471;52.150;4.508;2023-03-18T05:04:27;100618.91;;;10.90;85.13
72465;BME280;60471;52.150;4.508;2023-03-18T05:06:53;100607.63;;;11.04;85.21
72465;BME280;60471;52.150;4.508;2023-03-18T05:09:20;100617.16;;;11.07;84.86
72465;BME280;60471;52.150;4.508;2023-03-18T05:11:46;100618.44;;;10.99;84.84
72465;BME280;60471;52.150;4.508;2023-03-18T05:14:12;100621.25;;;10.96;85.27
72465;BME280;60471;52.150;4.508;2023-03-18T05:16:40;100633.81;;;10.91;85.22
72465;BME280;60471;52.150;4.508;2023-03-18T05:19:07;100619.13;;;11.03;84.94
72465;BME280;60471;52.150;4.508;2023-03-18T05:21:35;100619.47;;;11.13;84.26
72465;BME280;60471;52.150;4.508;2023-03-18T05:24:02;100618.78;;;11.09;84.63
72465;BME280;60471;52.150;4.508;2023-03-18T05:26:31;100621.25;;;11.12;84.45
72465;BME280;60471;52.150;4.508;2023-03-18T05:28:57;100612.50;;;11.12;84.47
72465;BME280;60471;52.150;4.508;2023-03-18T05:31:24;100605.41;;;11.12;84.10
72465;BME280;60471;52.150;4.508;2023-03-18T05:33:51;100610.97;;;11.08;84.14
72465;BME280;60471;52.150;4.508;2023-03-18T05:36:17;100619.94;;;10.88;85.45
72465;BME280;60471;52.150;4.508;2023-03-18T05:38:44;100611.28;;;11.01;84.69
72465;BME280;60471;52.150;4.508;2023-03-18T05:41:10;100611.44;;;10.98;84.29
72465;BME280;60471;52.150;4.508;2023-03-18T05:43:36;100615.69;;;11.01;84.50
72465;BME280;60471;52.150;4.508;2023-03-18T05:46:03;100613.06;;;11.01;84.13
72465;BME280;60471;52.150;4.508;2023-03-18T05:48:30;100609.13;;;10.92;84.69
72465;BME280;60471;52.150;4.508;2023-03-18T05:50:56;100617.56;;;10.99;84.55
72465;BME280;60471;52.150;4.508;2023-03-18T05:53:23;100611.84;;;10.91;84.50
72465;BME280;60471;52.150;4.508;2023-03-18T05:55:49;100615.13;;;10.79;84.85
72465;BME280;60471;52.150;4.508;2023-03-18T05:58:16;100620.16;;;10.83;85.16
72465;BME280;60471;52.150;4.508;2023-03-18T06:00:43;100626.00;;;10.72;85.22
72465;BME280;60471;52.150;4.508;2023-03-18T06:03:13;100617.09;;;10.75;85.18
72465;BME280;60471;52.150;4.508;2023-03-18T06:05:39;100621.44;;;10.76;84.96
72465;BME280;60471;52.150;4.508;2023-03-18T06:08:06;100614.13;;;10.81;84.84
72465;BME280;60471;52.150;4.508;2023-03-18T06:10:33;100618.44;;;10.82;84.74
72465;BME280;60471;52.150;4.508;2023-03-18T06:12:59;100616.25;;;10.74;84.76
72465;BME280;60471;52.150;4.508;2023-03-18T06:15:25;100632.28;;;10.70;85.35
72465;BME280;60471;52.150;4.508;2023-03-18T06:17:52;100638.34;;;10.72;85.46
72465;BME280;60471;52.150;4.508;2023-03-18T06:20:18;100638.75;;;10.64;85.63
72465;BME280;60471;52.150;4.508;2023-03-18T06:22:45;100641.69;;;10.58;85.67
72465;BME280;60471;52.150;4.508;2023-03-18T06:25:19;100641.41;;;10.64;85.74
72465;BME280;60471;52.150;4.508;2023-03-18T06:27:46;100649.53;;;10.77;85.05
72465;BME280;60471;52.150;4.508;2023-03-18T06:30:13;100653.94;;;10.77;84.96
72465;BME280;60471;52.150;4.508;2023-03-18T06:32:42;100658.69;;;10.87;85.05
72465;BME280;60471;52.150;4.508;2023-03-18T06:35:10;100660.00;;;10.79;85.20
72465;BME280;60471;52.150;4.508;2023-03-18T06:37:38;100667.91;;;10.79;85.58
72465;BME280;60471;52.150;4.508;2023-03-18T06:40:06;100674.06;;;10.79;86.06
72465;BME280;60471;52.150;4.508;2023-03-18T06:42:34;100684.78;;;10.76;85.74
72465;BME280;60471;52.150;4.508;2023-03-18T06:45:00;100674.91;;;10.80;86.07
72465;BME280;60471;52.150;4.508;2023-03-18T06:47:27;100682.16;;;11.09;85.14
72465;BME280;60471;52.150;4.508;2023-03-18T06:49:53;100683.72;;;10.96;84.70
72465;BME280;60471;52.150;4.508;2023-03-18T06:52:20;100682.81;;;11.30;83.96
72465;BME280;60471;52.150;4.508;2023-03-18T06:54:48;100681.88;;;11.31;83.71
72465;BME280;60471;52.150;4.508;2023-03-18T06:57:14;100680.59;;;11.38;83.11
72465;BME280;60471;52.150;4.508;2023-03-18T06:59:40;100681.59;;;11.20;84.12
72465;BME280;60471;52.150;4.508;2023-03-18T07:02:09;100687.56;;;11.23;84.03
72465;BME280;60471;52.150;4.508;2023-03-18T07:04:35;100695.88;;;11.33;83.66
72465;BME280;60471;52.150;4.508;2023-03-18T07:07:01;100687.59;;;11.39;83.63
72465;BME280;60471;52.150;4.508;2023-03-18T07:09:29;100686.50;;;11.43;83.22
72465;BME280;60471;52.150;4.508;2023-03-18T07:11:56;100694.94;;;11.50;83.31
72465;BME280;60471;52.150;4.508;2023-03-18T07:14:23;100691.44;;;11.49;83.03
72465;BME280;60471;52.150;4.508;2023-03-18T07:16:49;100693.00;;;11.53;83.10
72465;BME280;60471;52.150;4.508;2023-03-18T07:19:16;100696.25;;;11.58;82.86
72465;BME280;60471;52.150;4.508;2023-03-18T07:21:43;100707.94;;;11.70;82.72
72465;BME280;60471;52.150;4.508;2023-03-18T07:24:11;100704.78;;;11.64;82.94
72465;BME280;60471;52.150;4.508;2023-03-18T07:26:37;100701.63;;;11.57;83.26
72465;BME280;60471;52.150;4.508;2023-03-18T07:29:04;100702.78;;;11.84;82.66
72465;BME280;60471;52.150;4.508;2023-03-18T07:31:33;100708.13;;;11.83;83.03
72465;BME280;60471;52.150;4.508;2023-03-18T07:34:00;100705.00;;;11.92;82.97
72465;BME280;60471;52.150;4.508;2023-03-18T07:36:26;100703.63;;;12.01;82.88
72465;BME280;60471;52.150;4.508;2023-03-18T07:38:52;100706.28;;;12.16;82.60
72465;BME280;60471;52.150;4.508;2023-03-18T07:41:19;100705.34;;;12.17;82.72
72465;BME280;60471;52.150;4.508;2023-03-18T07:43:45;100700.91;;;12.18;82.78
72465;BME280;60471;52.150;4.508;2023-03-18T07:46:11;100704.31;;;12.20;82.07
72465;BME280;60471;52.150;4.508;2023-03-18T07:48:37;100709.69;;;12.03;83.42
72465;BME280;60471;52.150;4.508;2023-03-18T07:51:04;100713.22;;;12.49;81.91
72465;BME280;60471;52.150;4.508;2023-03-18T07:53:30;100711.34;;;12.51;81.34
72465;BME280;60471;52.150;4.508;2023-03-18T07:55:56;100706.94;;;12.96;79.96
72465;BME280;60471;52.150;4.508;2023-03-18T07:58:23;100705.84;;;13.14;78.69
72465;BME280;60471;52.150;4.508;2023-03-18T08:00:51;100690.34;;;13.37;77.46
72465;BME280;60471;52.150;4.508;2023-03-18T08:03:18;100705.97;;;13.41;77.35
72465;BME280;60471;52.150;4.508;2023-03-18T08:05:45;100703.84;;;13.18;78.13
72465;BME280;60471;52.150;4.508;2023-03-18T08:08:11;100700.47;;;13.30;78.00
72465;BME280;60471;52.150;4.508;2023-03-18T08:10:37;100705.88;;;13.57;76.94
72465;BME280;60471;52.150;4.508;2023-03-18T08:13:03;100716.75;;;13.38;77.74
72465;BME280;60471;52.150;4.508;2023-03-18T08:15:30;100719.97;;;13.57;76.51
72465;BME280;60471;52.150;4.508;2023-03-18T08:17:56;100722.81;;;13.40;77.63
72465;BME280;60471;52.150;4.508;2023-03-18T08:20:22;100706.81;;;13.70;76.27
72465;BME280;60471;52.150;4.508;2023-03-18T08:22:49;100722.00;;;13.95;74.60
72465;BME280;60471;52.150;4.508;2023-03-18T08:25:16;100725.25;;;13.86;74.89
72465;BME280;60471;52.150;4.508;2023-03-18T08:27:42;100699.31;;;13.62;75.54
72465;BME280;60471;52.150;4.508;2023-03-18T08:30:09;100701.66;;;13.67;75.25
72465;BME280;60471;52.150;4.508;2023-03-18T08:32:36;100710.88;;;13.33;76.31
72465;BME280;60471;52.150;4.508;2023-03-18T08:35:03;100716.94;;;13.49;75.93
72465;BME280;60471;52.150;4.508;2023-03-18T08:37:30;100717.50;;;13.40;75.90
72465;BME280;60471;52.150;4.508;2023-03-18T08:39:56;100733.31;;;13.56;74.97
72465;BME280;60471;52.150;4.508;2023-03-18T08:42:23;100721.84;;;13.55;75.29
72465;BME280;60471;52.150;4.508;2023-03-18T08:44:49;100724.31;;;13.73;74.46
72465;BME280;60471;52.150;4.508;2023-03-18T08:47:16;100723.47;;;13.44;74.83
72465;BME280;60471;52.150;4.508;2023-03-18T08:49:42;100734.22;;;13.98;74.19
72465;BME280;60471;52.150;4.508;2023-03-18T08:52:09;100736.16;;;14.23;72.57
72465;BME280;60471;52.150;4.508;2023-03-18T08:54:35;100739.19;;;14.43;72.14
72465;BME280;60471;52.150;4.508;2023-03-18T08:57:02;100749.19;;;14.13;72.83
72465;BME280;60471;52.150;4.508;2023-03-18T08:59:28;100748.47;;;13.82;73.58
72465;BME280;60471;52.150;4.508;2023-03-18T09:01:54;100771.22;;;13.58;74.51
72465;BME280;60471;52.150;4.508;2023-03-18T09:04:21;100765.81;;;13.59;74.74
72465;BME280;60471;52.150;4.508;2023-03-18T09:06:48;100764.19;;;13.57;74.80
72465;BME280;60471;52.150;4.508;2023-03-18T09:09:14;100763.31;;;13.85;73.95
72465;BME280;60471;52.150;4.508;2023-03-18T09:11:41;100759.97;;;14.10;72.86
72465;BME280;60471;52.150;4.508;2023-03-18T09:14:07;100758.59;;;14.45;71.46
72465;BME280;60471;52.150;4.508;2023-03-18T09:16:33;100761.56;;;14.54;70.45
72465;BME280;60471;52.150;4.508;2023-03-18T09:19:00;100763.09;;;14.58;70.91
72465;BME280;60471;52.150;4.508;2023-03-18T09:21:26;100763.81;;;14.47;70.84
72465;BME280;60471;52.150;4.508;2023-03-18T09:23:53;100769.63;;;14.66;70.40
72465;BME280;60471;52.150;4.508;2023-03-18T09:26:19;100760.72;;;14.53;71.05
72465;BME280;60471;52.150;4.508;2023-03-18T09:28:45;100762.94;;;14.46;70.87
72465;BME280;60471;52.150;4.508;2023-03-18T09:31:11;100773.50;;;14.88;69.12
72465;BME280;60471;52.150;4.508;2023-03-18T09:33:38;100763.38;;;15.20;67.71
72465;BME280;60471;52.150;4.508;2023-03-18T09:36:07;100757.31;;;15.30;67.40
72465;BME280;60471;52.150;4.508;2023-03-18T09:38:34;100745.59;;;15.33;67.54
72465;BME280;60471;52.150;4.508;2023-03-18T09:43:55;100751.81;;;14.94;67.55
72465;BME280;60471;52.150;4.508;2023-03-18T09:52:25;100768.41;;;14.97;67.47
72465;BME280;60471;52.150;4.508;2023-03-18T09:55:31;100760.81;;;15.69;65.02
72465;BME280;60471;52.150;4.508;2023-03-18T09:58:17;100763.47;;;16.31;62.84
72465;BME280;60471;52.150;4.508;2023-03-18T10:00:50;100762.78;;;16.64;60.88
72465;BME280;60471;52.150;4.508;2023-03-18T10:06:21;100774.34;;;16.28;62.15
72465;BME280;60471;52.150;4.508;2023-03-18T10:11:47;100770.47;;;15.57;63.82
72465;BME280;60471;52.150;4.508;2023-03-18T10:14:29;100758.78;;;15.34;65.46
72465;BME280;60471;52.150;4.508;2023-03-18T10:17:20;100760.69;;;15.58;65.09
72465;BME280;60471;52.150;4.508;2023-03-18T10:19:56;100755.09;;;15.75;64.58
72465;BME280;60471;52.150;4.508;2023-03-18T10:25:52;100764.09;;;15.98;63.57
72465;BME280;60471;52.150;4.508;2023-03-18T10:38:01;100749.00;;;15.86;64.46
72465;BME280;60471;52.150;4.508;2023-03-18T10:40:34;100762.63;;;15.56;64.73
72465;BME280;60471;52.150;4.508;2023-03-18T10:43:04;100759.72;;;15.59;64.86
72465;BME280;60471;52.150;4.508;2023-03-18T10:45:42;100765.06;;;15.84;64.13
72465;BME280;60471;52.150;4.508;2023-03-18T10:48:19;100764.63;;;16.27;62.76
72465;BME280;60471;52.150;4.508;2023-03-18T10:51:10;100768.50;;;16.47;62.13
72465;BME280;60471;52.150;4.508;2023-03-18T10:53:45;100778.56;;;15.81;64.01
72465;BME280;60471;52.150;4.508;2023-03-18T10:56:19;100766.75;;;15.98;63.17
72465;BME280;60471;52.150;4.508;2023-03-18T10:58:45;100763.16;;;15.61;64.36
72465;BME280;60471;52.150;4.508;2023-03-18T11:01:14;100763.88;;;15.37;65.64
72465;BME280;60471;52.150;4.508;2023-03-18T11:03:48;100766.75;;;15.22;65.31
72465;BME280;60471;52.150;4.508;2023-03-18T11:06:39;100758.34;;;15.28;65.44
72465;BME280;60471;52.150;4.508;2023-03-18T11:09:18;100769.53;;;15.20;66.42
72465;BME280;60471;52.150;4.508;2023-03-18T11:11:48;100776.22;;;15.26;65.84
72465;BME280;60471;52.150;4.508;2023-03-18T11:14:27;100773.31;;;15.16;66.50
72465;BME280;60471;52.150;4.508;2023-03-18T11:19:36;100788.28;;;14.65;66.82
72465;BME280;60471;52.150;4.508;2023-03-18T11:24:40;100784.03;;;14.89;66.85
72465;BME280;60471;52.150;4.508;2023-03-18T11:29:44;100781.13;;;14.53;68.66
72465;BME280;60471;52.150;4.508;2023-03-18T11:34:57;100777.47;;;14.68;68.50
72465;BME280;60471;52.150;4.508;2023-03-18T11:37:34;100781.63;;;14.72;67.84
72465;BME280;60471;52.150;4.508;2023-03-18T11:43:11;100772.97;;;14.56;68.30
72465;BME280;60471;52.150;4.508;2023-03-18T11:45:43;100769.38;;;14.57;68.36
72465;BME280;60471;52.150;4.508;2023-03-18T11:48:37;100764.94;;;14.70;68.10
72465;BME280;60471;52.150;4.508;2023-03-18T11:54:16;100748.16;;;15.47;66.41
72465;BME280;60471;52.150;4.508;2023-03-18T11:57:16;100751.25;;;15.67;65.92
72465;BME280;60471;52.150;4.508;2023-03-18T12:03:13;100745.38;;;16.23;63.37
72465;BME280;60471;52.150;4.508;2023-03-18T12:06:18;100740.28;;;16.44;62.74
72465;BME280;60471;52.150;4.508;2023-03-18T12:09:21;100740.69;;;16.51;61.81
72465;BME280;60471;52.150;4.508;2023-03-18T12:12:01;100742.88;;;16.81;60.52
72465;BME280;60471;52.150;4.508;2023-03-18T12:18:10;100743.03;;;16.91;59.40
72465;BME280;60471;52.150;4.508;2023-03-18T12:27:02;100746.16;;;16.73;60.66
72465;BME280;60471;52.150;4.508;2023-03-18T12:35:38;100739.72;;;18.77;53.96
72465;BME280;60471;52.150;4.508;2023-03-18T12:44:34;100738.19;;;23.77;39.49
72465;BME280;60471;52.150;4.508;2023-03-18T12:47:29;100731.81;;;20.88;44.90
72465;BME280;60471;52.150;4.508;2023-03-18T12:50:05;100731.63;;;19.82;47.79
72465;BME280;60471;52.150;4.508;2023-03-18T12:53:08;100735.50;;;19.98;48.53
72465;BME280;60471;52.150;4.508;2023-03-18T12:55:46;100732.84;;;20.08;47.96
72465;BME280;60471;52.150;4.508;2023-03-18T12:58:21;100742.03;;;19.24;49.38
72465;BME280;60471;52.150;4.508;2023-03-18T13:01:00;100720.38;;;20.96;45.33
72465;BME280;60471;52.150;4.508;2023-03-18T13:03:37;100728.63;;;22.15;41.07
72465;BME280;60471;52.150;4.508;2023-03-18T13:06:26;100714.41;;;23.38;39.09
72465;BME280;60471;52.150;4.508;2023-03-18T13:09:20;100712.53;;;24.90;35.13
72465;BME280;60471;52.150;4.508;2023-03-18T13:18:39;100711.63;;;23.82;36.86
72465;BME280;60471;52.150;4.508;2023-03-18T13:21:15;100719.75;;;20.24;43.22
72465;BME280;60471;52.150;4.508;2023-03-18T13:29:35;100732.94;;;20.66;43.83
72465;BME280;60471;52.150;4.508;2023-03-18T13:32:28;100720.94;;;21.56;42.35
72465;BME280;60471;52.150;4.508;2023-03-18T13:35:25;100708.16;;;23.37;39.14
72465;BME280;60471;52.150;4.508;2023-03-18T13:41:10;100710.00;;;24.80;35.26
72465;BME280;60471;52.150;4.508;2023-03-18T13:44:10;100709.94;;;24.31;36.75
72465;BME280;60471;52.150;4.508;2023-03-18T13:46:52;100711.69;;;24.65;36.53
72465;BME280;60471;52.150;4.508;2023-03-18T13:49:27;100703.59;;;25.05;35.41
72465;BME280;60471;52.150;4.508;2023-03-18T13:52:00;100720.28;;;24.60;34.84
72465;BME280;60471;52.150;4.508;2023-03-18T13:54:35;100701.34;;;23.85;36.15
72465;BME280;60471;52.150;4.508;2023-03-18T14:00:12;100692.63;;;19.28;46.60
72465;BME280;60471;52.150;4.508;2023-03-18T14:14:01;100671.72;;;22.38;39.76
72465;BME280;60471;52.150;4.508;2023-03-18T14:19:22;100668.59;;;18.54;49.74
72465;BME280;60471;52.150;4.508;2023-03-18T14:22:38;100665.28;;;19.24;47.73
72465;BME280;60471;52.150;4.508;2023-03-18T14:27:54;100668.38;;;17.37;52.39
72465;BME280;60471;52.150;4.508;2023-03-18T14:32:59;100666.34;;;18.06;52.79
72465;BME280;60471;52.150;4.508;2023-03-18T14:35:34;100671.25;;;18.54;51.97
72465;BME280;60471;52.150;4.508;2023-03-18T14:38:22;100668.34;;;17.93;54.30
72465;BME280;60471;52.150;4.508;2023-03-18T14:40:55;100667.72;;;17.56;55.12
72465;BME280;60471;52.150;4.508;2023-03-18T14:43:39;100670.91;;;17.27;56.62
72465;BME280;60471;52.150;4.508;2023-03-18T14:46:21;100667.59;;;17.57;54.91
72465;BME280;60471;52.150;4.508;2023-03-18T14:48:56;100673.31;;;17.53;54.38
72465;BME280;60471;52.150;4.508;2023-03-18T14:51:23;100664.84;;;18.57;52.17
72465;BME280;60471;52.150;4.508;2023-03-18T14:54:01;100662.81;;;18.49;51.68
72465;BME280;60471;52.150;4.508;2023-03-18T14:56:34;100650.19;;;19.44;48.93
72465;BME280;60471;52.150;4.508;2023-03-18T14:59:04;100663.50;;;20.34;46.05